createdAt,value
2023-03-05T00:02:47.000Z,1011.35
2023-03-05T00:08:27.000Z,1011.28
2023-03-05T00:14:06.000Z,1011.30
2023-03-05T00:19:46.000Z,1011.32
2023-03-05T00:25:25.000Z,1011.30
2023-03-05T00:31:05.000Z,1011.28
2023-03-05T00:36:45.000Z,1011.20
2023-03-05T00:42:24.000Z,1011.14
2023-03-05T00:48:04.000Z,1011.12
2023-03-05T00:53:43.000Z,1011.02
2023-03-05T00:59:23.000Z,1010.96
2023-03-05T01:05:02.000Z,1010.90
2023-03-05T01:10:42.000Z,1010.92
2023-03-05T01:16:22.000Z,1010.87
2023-03-05T01:22:01.000Z,1010.81
2023-03-05T01:27:41.000Z,1010.75
2023-03-05T01:33:20.000Z,1010.71
2023-03-05T01:39:00.000Z,1010.57
2023-03-05T01:44:40.000Z,1010.67
2023-03-05T01:50:19.000Z,1010.51
2023-03-05T01:55:59.000Z,1010.53
2023-03-05T02:01:38.000Z,1010.51
2023-03-05T02:07:18.000Z,1010.47
2023-03-05T02:12:58.000Z,1010.43
2023-03-05T02:18:37.000Z,1010.33
2023-03-05T02:24:17.000Z,1010.35
2023-03-05T02:29:56.000Z,1010.33
2023-03-05T02:35:36.000Z,1010.27
2023-03-05T02:41:15.000Z,1010.19
2023-03-05T02:46:55.000Z,1010.15
2023-03-05T02:52:35.000Z,1010.08
2023-03-05T02:58:14.000Z,1010.02
2023-03-05T03:03:54.000Z,1009.98
2023-03-05T03:09:33.000Z,1009.92
2023-03-05T03:15:13.000Z,1009.84
2023-03-05T03:20:53.000Z,1009.80
2023-03-05T03:26:32.000Z,1009.74
2023-03-05T03:32:12.000Z,1009.70
2023-03-05T03:37:51.000Z,1009.64
2023-03-05T03:43:31.000Z,1009.57
2023-03-05T03:49:11.000Z,1009.49
2023-03-05T03:54:50.000Z,1009.47
2023-03-05T04:00:30.000Z,1009.43
2023-03-05T04:06:09.000Z,1009.39
2023-03-05T04:11:49.000Z,1009.39
2023-03-05T04:17:28.000Z,1009.35
2023-03-05T04:23:08.000Z,1009.35
2023-03-05T04:28:48.000Z,1009.35
2023-03-05T04:34:27.000Z,1009.39
2023-03-05T04:40:07.000Z,1009.37
2023-03-05T04:45:46.000Z,1009.37
2023-03-05T04:51:26.000Z,1009.33
2023-03-05T04:57:06.000Z,1009.27
2023-03-05T05:02:45.000Z,1009.23
2023-03-05T05:08:25.000Z,1009.19
2023-03-05T05:14:04.000Z,1009.16
2023-03-05T05:19:44.000Z,1009.19
2023-03-05T05:25:24.000Z,1009.19
2023-03-05T05:31:03.000Z,1009.27
2023-03-05T05:36:43.000Z,1009.21
2023-03-05T05:42:22.000Z,1009.17
2023-03-05T05:48:02.000Z,1009.16
2023-03-05T05:53:41.000Z,1009.08
2023-03-05T05:59:21.000Z,1009.08
2023-03-05T06:05:01.000Z,1009.04
2023-03-05T06:10:40.000Z,1008.96
2023-03-05T06:16:20.000Z,1008.98
2023-03-05T06:21:59.000Z,1008.96
2023-03-05T06:27:39.000Z,1008.98
2023-03-05T06:33:19.000Z,1009.02
2023-03-05T06:38:58.000Z,1009.02
2023-03-05T06:44:38.000Z,1009.00
2023-03-05T06:50:17.000Z,1009.04
2023-03-05T06:55:57.000Z,1009.10
2023-03-05T07:01:37.000Z,1009.10
2023-03-05T07:07:16.000Z,1009.00
2023-03-05T07:12:56.000Z,1009.00
2023-03-05T07:18:35.000Z,1008.96
2023-03-05T07:24:15.000Z,1008.92
2023-03-05T07:29:54.000Z,1008.96
2023-03-05T07:35:34.000Z,1008.92
2023-03-05T07:41:13.000Z,1008.92
2023-03-05T07:46:53.000Z,1008.96
2023-03-05T07:52:32.000Z,1008.96
2023-03-05T07:58:12.000Z,1008.98
2023-03-05T08:03:52.000Z,1008.96
2023-03-05T08:09:31.000Z,1008.90
2023-03-05T08:15:11.000Z,1008.90
2023-03-05T08:20:50.000Z,1008.86
2023-03-05T08:26:30.000Z,1008.86
2023-03-05T08:32:09.000Z,1008.82
2023-03-05T08:37:49.000Z,1008.76
2023-03-05T08:43:28.000Z,1008.70
2023-03-05T08:49:08.000Z,1008.67
2023-03-05T08:54:47.000Z,1008.70
2023-03-05T09:00:27.000Z,1008.69
2023-03-05T09:06:07.000Z,1008.65
2023-03-05T09:11:46.000Z,1008.61
2023-03-05T09:17:26.000Z,1008.63
2023-03-05T09:23:05.000Z,1008.55
2023-03-05T09:28:45.000Z,1008.55
2023-03-05T09:34:24.000Z,1008.45
2023-03-05T09:40:04.000Z,1008.35
2023-03-05T09:45:43.000Z,1008.35
2023-03-05T09:51:23.000Z,1008.28
2023-03-05T09:57:02.000Z,1008.22
2023-03-05T10:02:42.000Z,1008.14
2023-03-05T10:08:21.000Z,1008.14
2023-03-05T10:14:01.000Z,1008.08
2023-03-05T10:19:41.000Z,1007.89
2023-03-05T10:25:20.000Z,1007.87
2023-03-05T10:31:00.000Z,1007.80
2023-03-05T10:36:39.000Z,1007.72
2023-03-05T10:42:19.000Z,1007.72
2023-03-05T10:47:58.000Z,1007.62
2023-03-05T10:53:38.000Z,1007.60
2023-03-05T10:59:17.000Z,1007.58
2023-03-05T11:04:57.000Z,1007.50
2023-03-05T11:10:36.000Z,1007.45
2023-03-05T11:16:16.000Z,1007.39
2023-03-05T11:21:55.000Z,1007.31
